Time;durP1;ratioP1;P1;durP2;ratioP2;P2;SDS_P1;SDS_P2;PMS_P1;PMS_P2;Temp;Humidity;BMP_temperature;BMP_pressure;BME280_temperature;BME280_humidity;BME280_pressure;Samples;Min_cycle;Max_cycle;Signal;HPM_P1;HPM_P2
2022/04/18 00:02:17;;;;;;;1.10;0.80;;;;;;;7.85;61.24;99090.59;5033603;28;20049;-95
2022/04/18 00:04:43;;;;;;;1.02;0.93;;;;;;;7.46;60.92;99059.88;5032656;28;20028;-96
2022/04/18 00:07:10;;;;;;;1.10;0.98;;;;;;;7.79;60.66;99072.88;5033779;28;20112;-95
2022/04/18 00:09:36;;;;;;;0.80;0.80;;;;;;;8.45;60.82;99182.84;5032643;28;20426;-96
2022/04/18 00:12:02;;;;;;;0.85;0.80;;;;;;;7.98;61.14;99133.72;5015928;28;20021;-95
2022/04/18 00:14:27;;;;;;;0.70;0.68;;;;;;;7.60;61.01;99097.75;5033275;28;20406;-96
2022/04/18 00:16:52;;;;;;;0.65;0.63;;;;;;;7.59;60.60;99054.91;5032536;28;20025;-96
2022/04/18 00:19:18;;;;;;;1.75;1.02;;;;;;;7.67;60.93;99066.38;5015947;28;20029;-96
2022/04/18 00:21:43;;;;;;;0.90;0.90;;;;;;;7.36;61.52;99061.84;5033473;28;20494;-95
2022/04/18 00:24:10;;;;;;;1.67;1.05;;;;;;;8.13;61.31;99161.94;5016459;28;20454;-96
2022/04/18 00:26:39;;;;;;;1.30;0.90;;;;;;;7.48;61.19;99086.78;5015936;28;20033;-96
2022/04/18 00:29:05;;;;;;;1.10;0.85;;;;;;;6.67;61.61;98982.78;5032450;28;20036;-96
2022/04/18 00:31:30;;;;;;;1.63;1.20;;;;;;;7.56;61.73;99078.88;5033211;28;20112;-95
2022/04/18 00:33:56;;;;;;;1.85;1.20;;;;;;;7.53;61.79;99075.78;5015944;28;20031;-96
2022/04/18 00:36:21;;;;;;;1.05;0.93;;;;;;;6.93;61.67;99035.06;5015963;28;20017;-96
2022/04/18 00:38:46;;;;;;;2.42;0.80;;;;;;;7.92;61.40;99121.28;5015792;28;20478;-95
2022/04/18 00:41:12;;;;;;;1.27;0.90;;;;;;;7.89;61.25;99133.94;5033237;28;20056;-96
2022/04/18 00:43:40;;;;;;;0.70;0.70;;;;;;;8.28;60.98;99173.38;5015957;28;20030;-96
2022/04/18 00:46:07;;;;;;;1.77;0.80;;;;;;;8.25;61.31;99174.53;5015812;28;20036;-96
2022/04/18 00:48:33;;;;;;;0.63;0.63;;;;;;;8.22;61.19;99182.78;5032966;28;20085;-96
2022/04/18 00:50:58;;;;;;;0.80;0.80;;;;;;;7.78;61.55;99137.75;5033146;28;20061;-96
2022/04/18 00:53:24;;;;;;;0.80;0.70;;;;;;;7.43;61.47;99040.97;5032517;28;20026;-95
2022/04/18 00:55:49;;;;;;;0.60;0.60;;;;;;;6.48;61.28;98899.22;5033206;28;20030;-96
2022/04/18 00:58:15;;;;;;;0.75;0.73;;;;;;;6.67;61.34;98953.09;5015371;28;20053;-95
2022/04/18 01:00:40;;;;;;;1.08;0.98;;;;;;;6.48;61.47;98940.34;5015467;28;20029;-95
2022/04/18 01:03:06;;;;;;;0.90;0.90;;;;;;;8.04;61.47;99163.78;5015005;28;20025;-96
2022/04/18 01:05:32;;;;;;;0.90;0.82;;;;;;;7.94;61.56;99123.72;5014926;28;20033;-94
2022/04/18 01:07:58;;;;;;;0.50;0.50;;;;;;;7.86;61.41;99118.50;5031895;28;20030;-96
2022/04/18 01:10:23;;;;;;;0.60;0.60;;;;;;;8.08;61.51;99130.88;5015161;28;20087;-96
2022/04/18 01:12:49;;;;;;;0.75;0.50;;;;;;;7.98;61.15;99148.69;5031617;28;20029;-96
2022/04/18 01:15:14;;;;;;;0.60;0.60;;;;;;;7.24;61.43;99029.06;5031698;28;20497;-96
2022/04/18 01:17:40;;;;;;;0.68;0.68;;;;;;;7.71;61.21;99078.16;5015120;28;20151;-96
2022/04/18 01:20:06;;;;;;;0.70;0.70;;;;;;;8.00;61.16;99135.38;5016544;28;20037;-93
2022/04/18 01:22:33;;;;;;;0.75;0.50;;;;;;;7.40;60.94;99072.84;5016780;28;20112;-95
2022/04/18 01:30:27;;;;;;;0.70;0.70;;;;;;;8.24;61.30;99162.38;5032641;28;20087;-94
2022/04/18 01:32:52;;;;;;;0.80;0.70;;;;;;;7.90;61.46;99096.97;5031300;28;20033;-95
2022/04/18 01:35:18;;;;;;;0.70;0.70;;;;;;;7.22;61.16;98989.84;5015020;28;20020;-95
2022/04/18 01:37:43;;;;;;;0.95;0.63;;;;;;;7.90;61.02;99091.72;5015060;28;20576;-95
2022/04/18 01:40:09;;;;;;;0.50;0.40;;;;;;;6.40;60.99;98887.91;5014957;28;20069;-95
2022/04/18 01:42:34;;;;;;;0.55;0.50;;;;;;;8.18;61.06;99115.75;5032305;28;20031;-94
2022/04/18 01:45:00;;;;;;;0.82;0.70;;;;;;;7.85;61.06;99067.75;5014581;28;20026;-95
2022/04/18 01:47:27;;;;;;;0.40;0.40;;;;;;;7.87;61.06;99083.34;5014843;28;20040;-96
2022/04/18 01:49:52;;;;;;;0.50;0.50;;;;;;;8.09;61.37;99134.34;5015012;28;20120;-96
2022/04/18 01:52:18;;;;;;;0.60;0.55;;;;;;;7.60;61.57;99040.78;5015005;28;20052;-95
2022/04/18 01:54:43;;;;;;;0.50;0.50;;;;;;;8.03;61.49;99143.72;5032304;28;20407;-95
2022/04/18 01:57:09;;;;;;;0.60;0.60;;;;;;;7.58;61.50;99058.53;5015570;28;20105;-96
2022/04/18 01:59:34;;;;;;;0.60;0.60;;;;;;;7.54;62.30;99051.16;5033069;28;20039;-96
2022/04/18 02:02:00;;;;;;;0.70;0.70;;;;;;;6.76;61.91;98925.06;5015222;28;20025;-96
2022/04/18 02:04:25;;;;;;;0.63;0.63;;;;;;;7.57;61.98;99077.91;5017293;28;20479;-95
2022/04/18 02:06:50;;;;;;;1.13;0.80;;;;;;;7.64;62.58;99081.47;5036193;28;20414;-96
2022/04/18 02:09:16;;;;;;;0.80;0.80;;;;;;;6.26;62.66;98895.47;5035297;28;20021;-96
2022/04/18 02:11:41;;;;;;;0.60;0.60;;;;;;;5.53;62.81;98768.94;5019772;28;20025;-95
2022/04/18 02:14:07;;;;;;;0.65;0.65;;;;;;;7.23;62.56;99022.19;5036135;28;20049;-96
2022/04/18 02:16:32;;;;;;;1.25;0.82;;;;;;;7.11;62.47;99013.03;5035859;28;20029;-96
2022/04/18 02:18:57;;;;;;;1.27;0.93;;;;;;;7.21;62.65;99011.03;5036868;28;20040;-96
2022/04/18 02:21:23;;;;;;;1.42;1.02;;;;;;;7.55;62.72;99079.88;5018934;28;20064;-96
2022/04/18 02:23:49;;;;;;;1.13;1.00;;;;;;;7.64;62.51;99085.91;5035349;28;20033;-96
2022/04/18 02:26:15;;;;;;;1.13;1.02;;;;;;;7.94;62.84;99135.06;5019099;28;20093;-96
2022/04/18 02:28:41;;;;;;;1.15;1.05;;;;;;;7.87;62.44;99152.50;5036551;28;20033;-96
2022/04/18 02:31:07;;;;;;;1.13;1.02;;;;;;;7.79;62.66;99134.13;5035905;28;20030;-96
2022/04/18 02:33:33;;;;;;;0.80;0.73;;;;;;;7.04;62.80;99023.38;5019056;28;20036;-96
2022/04/18 02:36:01;;;;;;;1.17;0.98;;;;;;;7.77;62.27;99106.41;5035582;28;20453;-96
2022/04/18 02:38:27;;;;;;;1.10;1.00;;;;;;;7.45;62.05;99076.63;5018529;28;20030;-96
2022/04/18 02:40:52;;;;;;;1.48;1.38;;;;;;;7.40;61.98;99086.78;5019685;28;20035;-96
2022/04/18 02:43:17;;;;;;;0.80;0.80;;;;;;;7.71;62.34;99133.34;5018100;28;20116;-96
2022/04/18 02:45:43;;;;;;;0.77;0.77;;;;;;;6.80;62.32;99011.16;5017809;28;20036;-96
2022/04/18 02:48:08;;;;;;;1.00;0.90;;;;;;;7.25;62.59;99099.81;5034958;28;20057;-94
2022/04/18 02:50:34;;;;;;;1.05;0.98;;;;;;;7.10;62.89;99053.41;5017748;28;20116;-96
2022/04/18 02:53:00;;;;;;;0.80;0.80;;;;;;;6.81;62.83;99025.09;5017910;28;20084;-96
2022/04/18 02:55:25;;;;;;;0.70;0.70;;;;;;;6.80;62.98;99031.31;5035283;28;20022;-96
2022/04/18 02:57:51;;;;;;;0.80;0.80;;;;;;;6.22;63.11;98923.03;5017564;28;20529;-96
2022/04/18 03:00:17;;;;;;;1.33;1.10;;;;;;;7.59;62.50;99135.53;5034240;28;20053;-96
2022/04/18 03:02:43;;;;;;;1.02;0.85;;;;;;;7.14;63.08;99078.31;5037492;28;20034;-96
2022/04/18 03:05:10;;;;;;;1.10;1.00;;;;;;;7.49;63.12;99129.66;5018309;28;20059;-96
2022/04/18 03:07:36;;;;;;;1.00;0.90;;;;;;;7.21;62.61;99082.75;5018094;28;20025;-96
2022/04/18 03:10:02;;;;;;;0.85;0.85;;;;;;;7.18;63.12;99096.19;5034472;28;20057;-96
2022/04/18 03:12:27;;;;;;;1.15;1.05;;;;;;;6.82;62.73;99019.66;5018997;28;20566;-96
2022/04/18 03:14:53;;;;;;;0.95;0.95;;;;;;;6.55;63.20;98963.13;5017761;28;20059;-96
2022/04/18 03:17:19;;;;;;;1.27;1.17;;;;;;;6.42;62.95;98946.25;5017222;28;20033;-96
2022/04/18 03:19:44;;;;;;;1.08;1.00;;;;;;;7.00;63.14;99041.28;5018985;28;20068;-96
2022/04/18 03:22:10;;;;;;;1.02;0.93;;;;;;;6.33;63.62;98940.22;5019155;28;20033;-96
2022/04/18 03:24:35;;;;;;;1.55;1.25;;;;;;;6.18;63.46;98923.50;5018465;28;20033;-95
2022/04/18 03:27:02;;;;;;;1.35;1.20;;;;;;;7.58;63.16;99139.97;5017754;28;20022;-96
2022/04/18 03:29:28;;;;;;;1.27;1.00;;;;;;;7.36;63.15;99079.41;5019137;28;20112;-96
2022/04/18 03:31:54;;;;;;;1.50;1.10;;;;;;;7.39;63.45;99079.91;5036469;28;20029;-96
2022/04/18 03:34:20;;;;;;;1.17;1.10;;;;;;;7.43;63.11;99127.66;5019184;28;20017;-96
2022/04/18 03:42:14;;;;;;;1.55;1.45;;;;;;;7.52;63.47;99098.59;5048416;28;20103;-94
2022/04/18 03:44:43;;;;;;;2.40;1.60;;;;;;;5.94;63.21;98857.00;5043172;28;20033;-96
2022/04/18 03:47:13;;;;;;;1.88;1.77;;;;;;;6.81;64.00;99001.47;5017196;28;20025;-96
2022/04/18 03:49:40;;;;;;;2.17;1.98;;;;;;;7.46;63.46;99104.53;5034750;28;20035;-96
2022/04/18 03:52:06;;;;;;;1.48;1.38;;;;;;;7.56;63.24;99109.59;5018363;28;20025;-96
2022/04/18 03:54:33;;;;;;;1.50;1.40;;;;;;;7.12;63.58;99040.94;5017264;28;20171;-96
2022/04/18 03:56:58;;;;;;;1.48;1.38;;;;;;;6.81;63.33;99004.91;5017018;28;20049;-96
2022/04/18 03:59:23;;;;;;;1.98;1.40;;;;;;;7.01;63.20;99042.91;5016612;28;20414;-96
2022/04/18 04:01:49;;;;;;;1.90;1.35;;;;;;;7.07;63.79;99033.56;5018134;28;20036;-96
2022/04/18 04:04:14;;;;;;;1.52;1.42;;;;;;;7.64;63.93;99131.41;5033043;28;20120;-96
2022/04/18 04:06:40;;;;;;;1.73;1.63;;;;;;;7.14;63.46;99042.41;5034376;28;20036;-96
2022/04/18 04:09:05;;;;;;;1.42;1.30;;;;;;;7.29;63.29;99060.91;5018471;28;20395;-96
2022/04/18 04:11:31;;;;;;;2.30;1.30;;;;;;;7.59;63.36;99077.72;5017344;28;20028;-95
2022/04/18 04:13:56;;;;;;;1.48;1.27;;;;;;;7.44;63.46;99071.53;5020848;28;20043;-96
2022/04/18 04:16:22;;;;;;;1.05;1.05;;;;;;;6.48;62.94;98941.16;5023446;28;20060;-96
2022/04/18 04:18:49;;;;;;;2.00;1.80;;;;;;;7.03;63.19;99019.13;5021386;28;20040;-96
2022/04/18 04:21:15;;;;;;;1.95;1.80;;;;;;;6.13;63.51;98889.94;5022414;28;20517;-96
2022/04/18 04:23:41;;;;;;;2.35;1.98;;;;;;;6.95;64.04;99017.34;5023224;28;20033;-96
2022/04/18 04:26:07;;;;;;;4.30;1.73;;;;;;;6.14;63.89;98902.06;5024543;28;20034;-96
2022/04/18 04:28:33;;;;;;;2.42;1.67;;;;;;;6.40;64.00;98956.09;5022154;28;20076;-96
2022/04/18 04:30:58;;;;;;;1.60;1.50;;;;;;;7.19;63.85;99060.25;5025410;28;20029;-96
2022/04/18 04:33:24;;;;;;;2.03;1.88;;;;;;;7.29;64.11;99093.22;5021756;28;20113;-96
2022/04/18 04:35:49;;;;;;;5.88;2.40;;;;;;;5.91;63.62;98848.66;5023191;28;20085;-96
2022/04/18 04:38:15;;;;;;;2.67;2.47;;;;;;;6.28;63.68;98935.47;5042426;28;20411;-96
2022/04/18 04:40:40;;;;;;;3.05;2.40;;;;;;;7.42;63.74;99078.75;5024748;28;20021;-96
2022/04/18 04:43:06;;;;;;;2.78;2.58;;;;;;;7.25;63.57;99047.28;5018905;28;20025;-96
2022/04/18 04:45:32;;;;;;;4.05;2.97;;;;;;;7.46;63.85;99086.16;5018546;28;20035;-96
2022/04/18 04:47:57;;;;;;;2.80;2.40;;;;;;;6.54;63.49;98965.91;5038218;28;20035;-96
2022/04/18 04:50:23;;;;;;;4.05;2.40;;;;;;;7.69;63.61;99130.91;5022702;28;20057;-96
2022/04/18 04:52:49;;;;;;;2.50;2.30;;;;;;;7.61;63.75;99094.13;5017941;28;20021;-96
2022/04/18 04:55:14;;;;;;;2.95;2.35;;;;;;;7.16;63.44;99042.22;5018411;28;20030;-96
2022/04/18 04:57:40;;;;;;;2.38;2.10;;;;;;;7.53;63.61;99123.88;5016966;28;20049;-96
2022/04/18 05:00:06;;;;;;;2.03;1.92;;;;;;;7.59;63.62;99094.31;5018945;28;20033;-96
2022/04/18 05:02:31;;;;;;;2.33;2.13;;;;;;;7.11;64.05;99050.59;5039384;28;20029;-96
2022/04/18 05:04:56;;;;;;;1.98;1.85;;;;;;;7.18;63.97;99046.31;5019743;28;20048;-95
2022/04/18 05:07:22;;;;;;;2.60;2.35;;;;;;;7.75;64.12;99145.16;5018348;28;20025;-96
2022/04/18 05:09:47;;;;;;;2.60;2.40;;;;;;;7.49;64.20;99108.63;5016824;28;20029;-96
2022/04/18 05:12:13;;;;;;;2.80;2.30;;;;;;;7.23;63.91;99067.63;5017400;28;20041;-96
2022/04/18 05:14:38;;;;;;;2.45;2.25;;;;;;;7.01;63.64;99019.28;5018193;28;20029;-96
2022/04/18 05:17:04;;;;;;;3.15;2.50;;;;;;;7.65;64.11;99121.72;5017379;28;20045;-96
2022/04/18 05:19:29;;;;;;;2.92;2.55;;;;;;;7.59;63.53;99130.28;5016705;28;20604;-94
2022/04/18 05:21:55;;;;;;;3.10;2.80;;;;;;;6.88;63.54;99007.69;5035209;28;20098;-93
2022/04/18 05:24:20;;;;;;;4.63;2.92;;;;;;;7.80;64.12;99150.72;5050793;28;20037;-94
2022/04/18 05:26:46;;;;;;;2.65;2.45;;;;;;;7.38;64.21;99138.66;5050479;28;20031;-93
2022/04/18 05:29:12;;;;;;;3.40;2.63;;;;;;;6.05;63.67;98903.06;5050997;28;20035;-94
2022/04/18 05:31:37;;;;;;;6.30;4.80;;;;;;;7.42;63.86;99129.47;5049859;28;20086;-94
2022/04/18 05:34:03;;;;;;;3.45;3.10;;;;;;;7.56;64.43;99139.31;5040362;28;20039;-92
2022/04/18 05:36:29;;;;;;;3.83;3.30;;;;;;;7.37;64.23;99081.88;5041218;28;20120;-92
2022/04/18 05:38:55;;;;;;;3.10;2.80;;;;;;;7.35;63.94;99086.47;5052098;28;20413;-95
2022/04/18 05:41:20;;;;;;;3.60;3.10;;;;;;;7.16;64.60;99045.66;5037688;28;20025;-92
2022/04/18 05:43:46;;;;;;;3.08;2.83;;;;;;;7.28;64.04;99049.56;5030357;28;20033;-94
2022/04/18 05:46:12;;;;;;;3.78;3.47;;;;;;;7.40;64.46;99076.28;5051175;28;20052;-95
2022/04/18 05:48:37;;;;;;;3.40;2.78;;;;;;;7.22;64.13;99062.56;5045172;28;20422;-96
2022/04/18 05:51:03;;;;;;;2.33;2.08;;;;;;;6.50;64.03;98910.34;5056636;28;20033;-96
2022/04/18 05:53:28;;;;;;;2.67;1.90;;;;;;;7.21;64.05;99047.78;5055975;28;20100;-96
2022/04/18 05:55:54;;;;;;;2.85;2.42;;;;;;;7.38;64.10;99059.06;5044195;28;20032;-96
2022/04/18 05:58:19;;;;;;;2.92;2.50;;;;;;;7.55;63.31;99095.63;5042707;28;20090;-95
2022/04/18 06:00:45;;;;;;;2.60;2.38;;;;;;;7.66;63.52;99107.59;5054201;28;20032;-95
2022/04/18 06:03:11;;;;;;;3.22;2.92;;;;;;;7.95;63.97;99151.66;5054844;28;20103;-95
2022/04/18 06:05:36;;;;;;;2.03;1.90;;;;;;;7.58;64.16;99089.22;5055136;28;20039;-96
2022/04/18 06:08:03;;;;;;;2.30;2.10;;;;;;;7.60;63.92;99100.38;5055331;28;20029;-96
2022/04/18 06:10:29;;;;;;;2.70;2.20;;;;;;;7.65;63.77;99121.72;5031452;28;20037;-96
2022/04/18 06:12:55;;;;;;;2.83;2.60;;;;;;;7.22;63.57;99067.81;5050320;28;20033;-96
2022/04/18 06:15:20;;;;;;;2.30;2.10;;;;;;;7.83;63.85;99145.13;5040489;28;20041;-96
2022/04/18 06:17:46;;;;;;;1.85;1.70;;;;;;;8.12;63.80;99181.31;5046441;28;20094;-96
2022/04/18 06:20:11;;;;;;;2.50;2.30;;;;;;;5.15;63.49;98703.16;5031490;28;20030;-96
2022/04/18 06:22:37;;;;;;;2.65;2.22;;;;;;;6.05;63.73;98897.81;5051250;28;20055;-96
2022/04/18 06:25:06;;;;;;;3.30;2.60;;;;;;;7.95;63.54;99164.78;5027561;28;20048;-96
2022/04/18 06:27:32;;;;;;;2.88;1.95;;;;;;;6.95;63.65;99009.47;5055114;28;20029;-96
2022/04/18 06:29:57;;;;;;;2.60;2.35;;;;;;;5.80;63.18;98815.72;5057801;28;20033;-96
2022/04/18 06:32:24;;;;;;;5.22;2.75;;;;;;;7.94;63.29;99129.81;5049351;28;20032;-96
2022/04/18 06:34:50;;;;;;;3.20;2.50;;;;;;;6.18;63.18;98868.47;5058905;28;20048;-96
2022/04/18 06:37:15;;;;;;;2.80;2.53;;;;;;;5.97;63.31;98824.44;5043600;28;20029;-96
2022/04/18 06:39:43;;;;;;;3.80;3.10;;;;;;;6.92;62.64;98977.50;5040910;28;20078;-96
2022/04/18 06:42:09;;;;;;;3.03;2.30;;;;;;;7.29;62.63;99037.25;5048271;28;20036;-96
2022/04/18 06:44:35;;;;;;;2.25;2.05;;;;;;;5.93;62.69;98823.94;5046588;28;20029;-96
2022/04/18 06:47:04;;;;;;;2.08;1.60;;;;;;;5.61;62.86;98780.22;5053956;28;20025;-96
2022/04/18 06:49:30;;;;;;;3.55;2.95;;;;;;;8.48;63.05;99194.84;5051938;28;20100;-96
2022/04/18 06:51:58;;;;;;;3.20;2.90;;;;;;;8.45;62.54;99221.50;5035408;28;20041;-96
2022/04/18 06:54:24;;;;;;;3.33;2.42;;;;;;;7.06;62.79;99024.03;5038436;28;20042;-96
2022/04/18 06:57:02;;;;;;;1.88;1.77;;;;;;;5.86;62.47;98796.72;5033948;28;20505;-96
2022/04/18 06:59:28;;;;;;;1.45;1.25;;;;;;;5.77;62.54;98781.19;5035390;28;20052;-96
2022/04/18 07:01:55;;;;;;;1.40;1.30;;;;;;;7.21;62.47;98990.84;5025117;28;20117;-96
2022/04/18 07:04:21;;;;;;;1.38;1.27;;;;;;;6.45;62.11;98917.91;5041532;28;20029;-96
2022/04/18 07:06:47;;;;;;;3.42;2.50;;;;;;;6.14;61.93;98860.13;5035698;28;20071;-96
2022/04/18 07:09:12;;;;;;;3.03;2.72;;;;;;;7.86;62.21;99103.56;5053554;28;20106;-96
2022/04/18 07:11:39;;;;;;;3.58;2.90;;;;;;;6.69;62.96;98914.44;5055963;28;20092;-96
2022/04/18 07:14:05;;;;;;;3.45;3.10;;;;;;;6.65;62.75;98934.91;5038305;28;20036;-96
2022/04/18 07:16:31;;;;;;;3.50;3.20;;;;;;;7.59;63.06;99093.50;5044874;28;20036;-96
2022/04/18 07:19:00;;;;;;;2.30;2.10;;;;;;;7.82;62.40;99096.19;5031489;28;20033;-96
2022/04/18 07:21:26;;;;;;;2.70;2.50;;;;;;;6.76;62.17;98952.13;5037446;28;20490;-96
2022/04/18 07:23:53;;;;;;;3.72;3.33;;;;;;;5.45;62.53;98771.56;5031162;28;20037;-96
2022/04/18 07:26:19;;;;;;;3.53;3.20;;;;;;;5.72;61.98;98818.34;5047464;28;20058;-96
2022/04/18 07:28:46;;;;;;;2.72;2.53;;;;;;;5.78;62.05;98836.03;5046585;28;20025;-96
2022/04/18 07:31:12;;;;;;;5.22;4.05;;;;;;;7.95;62.52;99191.09;5034750;28;20045;-96
2022/04/18 07:33:37;;;;;;;4.20;3.80;;;;;;;6.72;62.40;98950.81;5039384;28;20040;-96
2022/04/18 07:36:03;;;;;;;3.45;2.38;;;;;;;7.16;62.58;99085.06;5036230;28;20047;-96
2022/04/18 07:41:14;;;;;;;3.97;3.33;;;;;;;6.99;62.80;99065.88;5049464;28;20056;-96
2022/04/18 07:43:41;;;;;;;2.25;2.00;;;;;;;8.33;62.87;99244.75;5033180;28;20021;-96
2022/04/18 07:46:07;;;;;;;3.35;2.60;;;;;;;5.92;63.11;98879.13;5045995;28;20029;-96
2022/04/18 07:48:34;;;;;;;5.65;5.05;;;;;;;6.53;62.80;98964.28;5047678;28;20028;-96
2022/04/18 07:53:43;;;;;;;1.60;1.50;;;;;;;8.38;63.30;99257.38;5044175;28;20534;-96
2022/04/18 07:56:09;;;;;;;2.17;1.42;;;;;;;8.33;63.25;99252.63;5047611;28;20033;-96
2022/04/18 07:58:35;;;;;;;2.45;2.25;;;;;;;8.41;62.94;99257.84;5034595;28;20024;-96
2022/04/18 08:01:00;;;;;;;3.30;2.00;;;;;;;8.47;62.81;99261.63;5039813;28;20017;-96
2022/04/18 08:03:26;;;;;;;3.63;2.47;;;;;;;8.23;62.90;99220.41;5023560;28;20017;-96
2022/04/18 08:05:54;;;;;;;1.30;1.20;;;;;;;7.51;62.65;99130.28;5022319;28;20037;-96
2022/04/18 08:08:20;;;;;;;1.98;1.42;;;;;;;7.84;62.37;99125.75;5021048;28;20566;-96
2022/04/18 08:10:45;;;;;;;1.90;1.63;;;;;;;8.58;62.49;99267.31;5027016;28;20075;-96
2022/04/18 08:13:11;;;;;;;1.65;1.50;;;;;;;8.09;62.83;99176.41;5031303;28;20047;-96
2022/04/18 08:15:36;;;;;;;2.50;1.75;;;;;;;6.45;62.79;98948.56;5035197;28;20087;-96
2022/04/18 08:18:02;;;;;;;3.08;2.22;;;;;;;8.09;62.78;99226.38;5030345;28;20039;-96
2022/04/18 08:20:28;;;;;;;2.75;1.63;;;;;;;7.60;62.47;99106.47;5030766;28;20082;-95
2022/04/18 08:22:53;;;;;;;2.40;2.10;;;;;;;8.68;62.56;99275.00;5037746;28;20025;-96
2022/04/18 08:25:18;;;;;;;1.95;1.77;;;;;;;8.19;62.31;99191.00;5024850;28;20592;-96
2022/04/18 08:27:44;;;;;;;1.65;1.48;;;;;;;8.21;62.32;99210.06;5018972;28;20131;-96
2022/04/18 08:30:09;;;;;;;3.13;1.70;;;;;;;7.80;62.12;99150.72;5019411;28;20036;-96
2022/04/18 08:32:39;;;;;;;1.50;1.40;;;;;;;8.53;62.55;99285.44;5023215;28;20085;-96
2022/04/18 08:35:06;;;;;;;3.20;2.05;;;;;;;7.81;62.73;99142.69;5019709;28;20021;-96
2022/04/18 08:37:33;;;;;;;3.35;3.00;;;;;;;7.92;62.64;99154.63;5016854;28;20108;-96
2022/04/18 08:39:58;;;;;;;2.92;2.53;;;;;;;7.73;62.73;99126.94;5031713;28;20467;-96
2022/04/18 08:42:25;;;;;;;2.00;1.80;;;;;;;8.70;62.76;99283.53;5024672;28;20021;-96
2022/04/18 08:44:52;;;;;;;1.80;1.60;;;;;;;8.53;62.74;99263.56;5018356;28;20026;-96
2022/04/18 08:52:50;;;;;;;2.30;2.10;;;;;;;8.78;62.40;99272.16;5039072;28;20031;-96
2022/04/18 08:55:20;;;;;;;3.13;2.15;;;;;;;8.00;62.47;99156.41;5023045;28;20025;-96
2022/04/18 08:57:45;;;;;;;2.20;1.77;;;;;;;7.22;62.62;99054.69;5016922;28;20513;-96
2022/04/18 09:00:12;;;;;;;2.50;2.30;;;;;;;8.58;63.27;99291.00;5018366;28;20071;-95
2022/04/18 09:02:38;;;;;;;2.28;1.70;;;;;;;7.85;63.03;99180.78;5016621;28;20021;-96
2022/04/18 09:05:09;;;;;;;3.72;1.80;;;;;;;8.58;63.14;99279.66;5014351;28;20033;-95
2022/04/18 09:07:34;;;;;;;2.13;1.75;;;;;;;7.94;63.00;99169.22;5021100;28;20032;-95
2022/04/18 09:10:00;;;;;;;1.98;1.70;;;;;;;7.93;63.73;99164.16;5017599;28;20025;-95
2022/04/18 09:12:29;;;;;;;3.92;3.13;;;;;;;7.14;62.89;99044.19;5023877;28;20030;-96
2022/04/18 09:14:56;;;;;;;1.83;1.65;;;;;;;8.34;63.13;99220.06;5023255;28;20025;-95
2022/04/18 09:17:35;;;;;;;2.60;2.10;;;;;;;8.05;63.30;99175.09;5040682;28;20351;-96
2022/04/18 09:20:12;;;;;;;2.28;2.03;;;;;;;8.26;62.93;99236.69;5040931;28;20036;-96
2022/04/18 09:22:42;;;;;;;2.97;2.00;;;;;;;8.63;62.82;99285.22;5034783;28;20029;-96
2022/04/18 09:25:20;;;;;;;2.17;1.42;;;;;;;8.57;63.04;99283.28;5046906;28;20044;-96
2022/04/18 09:27:53;;;;;;;2.15;1.50;;;;;;;8.47;63.29;99274.78;5024424;28;20029;-96
2022/04/18 09:30:19;;;;;;;3.97;3.15;;;;;;;7.77;63.05;99172.09;5047345;28;20033;-96
2022/04/18 09:33:06;;;;;;;2.00;1.90;;;;;;;8.26;62.78;99239.31;5032661;28;20037;-95
2022/04/18 09:35:32;;;;;;;2.33;1.77;;;;;;;8.54;63.24;99275.72;5039919;28;20013;-96
2022/04/18 09:38:04;;;;;;;2.53;2.00;;;;;;;7.89;62.68;99165.47;5048541;28;20039;-96
2022/04/18 09:40:33;;;;;;;3.60;2.53;;;;;;;8.41;62.82;99249.16;5049739;28;20021;-96
2022/04/18 09:42:59;;;;;;;2.42;1.90;;;;;;;7.04;62.78;99048.81;5029726;28;20033;-95
2022/04/18 09:45:24;;;;;;;3.47;2.55;;;;;;;7.90;62.83;99185.53;5026467;28;20029;-95
2022/04/18 09:47:55;;;;;;;4.18;3.08;;;;;;;8.62;62.78;99298.53;5025722;28;20131;-96
2022/04/18 09:53:26;;;;;;;3.83;3.28;;;;;;;8.53;62.73;99274.09;5045623;28;20515;-96
2022/04/18 09:55:56;;;;;;;3.70;3.33;;;;;;;8.13;62.06;99191.66;5035166;28;20083;-95
2022/04/18 09:58:22;;;;;;;8.63;7.40;;;;;;;8.05;61.99;99207.47;5053475;28;20053;-93
2022/04/18 10:00:49;;;;;;;3.97;3.50;;;;;;;7.74;61.77;99157.47;5044728;28;20025;-95
2022/04/18 10:03:14;;;;;;;4.75;3.42;;;;;;;7.51;61.89;99125.84;5040364;28;20558;-95
2022/04/18 10:05:40;;;;;;;4.88;4.07;;;;;;;8.00;62.09;99177.44;5040703;28;20056;-96
2022/04/18 10:08:06;;;;;;;2.90;2.50;;;;;;;8.82;61.41;99300.59;5063424;28;20025;-96
2022/04/18 10:10:33;;;;;;;5.68;3.17;;;;;;;8.79;61.39;99300.94;5069406;28;20051;-94
2022/04/18 10:12:59;;;;;;;4.32;3.90;;;;;;;8.53;61.55;99288.06;5051465;28;20032;-96
2022/04/18 10:15:27;;;;;;;4.15;3.17;;;;;;;8.54;62.14;99284.44;5032213;28;20022;-96
2022/04/18 10:17:52;;;;;;;3.30;2.45;;;;;;;8.15;61.99;99207.28;5027824;28;20036;-96
2022/04/18 10:20:37;;;;;;;5.13;3.38;;;;;;;8.45;61.79;99229.41;5028526;28;20021;-94
2022/04/18 10:23:40;;;;;;;2.80;2.42;;;;;;;9.05;61.52;99315.63;5045329;28;20268;-96
2022/04/18 10:26:30;;;;;;;2.20;1.70;;;;;;;8.72;60.68;99263.13;5065215;28;20029;-96
2022/04/18 10:29:00;;;;;;;4.30;3.20;;;;;;;8.56;61.23;99240.34;5037622;28;20029;-96
2022/04/18 10:31:34;;;;;;;3.58;3.03;;;;;;;9.07;61.59;99300.47;5037509;28;20557;-96
2022/04/18 10:34:00;;;;;;;3.85;2.95;;;;;;;8.90;61.24;99312.88;5025316;28;20036;-95
2022/04/18 10:36:27;;;;;;;2.97;2.67;;;;;;;7.60;61.01;99061.78;5024745;28;20479;-95
2022/04/18 10:38:54;;;;;;;3.17;2.33;;;;;;;8.60;61.07;99206.63;5021074;28;20175;-96
2022/04/18 10:41:32;;;;;;;3.05;2.53;;;;;;;9.32;61.14;99312.47;5032507;28;20178;-96
2022/04/18 10:44:02;;;;;;;2.42;2.20;;;;;;;9.41;60.83;99315.88;5037927;28;20033;-96
2022/04/18 10:46:28;;;;;;;2.63;2.35;;;;;;;8.94;60.55;99263.38;5031622;28;20058;-96
2022/04/18 10:49:05;;;;;;;3.05;2.75;;;;;;;9.45;61.00;99299.53;5032628;28;20029;-96
2022/04/18 10:51:38;;;;;;;4.45;3.47;;;;;;;8.93;60.94;99227.50;5035313;28;20028;-96
2022/04/18 10:54:21;;;;;;;3.25;2.95;;;;;;;8.46;60.42;99173.16;5039246;28;20096;-96
2022/04/18 10:57:05;;;;;;;2.72;1.92;;;;;;;9.57;60.17;99300.75;5024913;28;20045;-96
2022/04/18 10:59:36;;;;;;;2.47;2.28;;;;;;;9.33;59.64;99265.88;5049166;28;20119;-96
2022/04/18 11:02:04;;;;;;;2.65;2.45;;;;;;;8.89;60.18;99183.06;5032462;28;20052;-96
2022/04/18 11:04:31;;;;;;;2.75;2.45;;;;;;;9.72;60.29;99284.19;5045162;28;20037;-96
2022/04/18 11:06:59;;;;;;;2.58;2.30;;;;;;;6.97;59.96;98842.16;5038094;28;20091;-95
2022/04/18 11:09:26;;;;;;;1.98;1.88;;;;;;;9.89;59.88;99285.69;5024027;28;20162;-96
2022/04/18 11:12:13;;;;;;;3.72;2.58;;;;;;;9.79;60.34;99288.56;5029478;28;20461;-95
2022/04/18 11:14:54;;;;;;;2.90;2.05;;;;;;;9.64;60.09;99292.97;5043877;28;20387;-96
2022/04/18 11:17:25;;;;;;;2.75;2.40;;;;;;;9.52;60.21;99297.84;5039301;28;20560;-96
2022/04/18 11:19:50;;;;;;;3.17;1.95;;;;;;;8.93;60.56;99195.91;5024428;28;20037;-94
2022/04/18 11:22:26;;;;;;;2.78;2.40;;;;;;;9.30;60.49;99272.31;5038629;28;20528;-95
2022/04/18 11:24:51;;;;;;;3.78;3.00;;;;;;;9.82;59.98;99282.94;5037277;28;20056;-96
2022/04/18 11:27:20;;;;;;;3.00;2.70;;;;;;;9.85;60.03;99287.84;5044350;28;20037;-96
2022/04/18 11:30:06;;;;;;;4.13;2.88;;;;;;;9.44;60.26;99220.66;5019402;28;20034;-94
2022/04/18 11:32:40;;;;;;;2.80;2.60;;;;;;;9.57;60.53;99232.22;5018410;28;20029;-96
2022/04/18 11:35:08;;;;;;;3.75;3.38;;;;;;;9.88;60.25;99281.41;5023633;28;20018;-94
2022/04/18 11:37:34;;;;;;;3.95;3.65;;;;;;;8.93;60.06;99128.25;5021723;28;20489;-95
2022/04/18 11:40:09;;;;;;;2.75;2.30;;;;;;;8.38;59.94;99018.81;5022524;28;20045;-96
2022/04/18 11:42:35;;;;;;;2.95;2.65;;;;;;;9.67;59.25;99231.19;5031610;28;20025;-96
2022/04/18 11:45:04;;;;;;;2.60;2.40;;;;;;;10.35;59.21;99278.44;5024167;28;20132;-95
2022/04/18 11:47:35;;;;;;;2.95;2.65;;;;;;;9.59;58.49;99150.34;5035444;28;20025;-96
2022/04/18 11:50:03;;;;;;;3.17;2.40;;;;;;;8.75;58.52;99044.31;5034965;28;20513;-95
2022/04/18 11:52:31;;;;;;;3.97;3.17;;;;;;;10.04;58.55;99181.00;5023272;28;20032;-96
2022/04/18 11:55:05;;;;;;;4.18;3.78;;;;;;;9.02;58.30;99024.50;5027050;28;20044;-95
2022/04/18 11:57:36;;;;;;;3.65;3.35;;;;;;;10.25;58.14;99245.41;5029608;28;20442;-95
2022/04/18 12:00:06;;;;;;;3.22;2.58;;;;;;;9.42;58.26;99075.91;5020658;28;20039;-96
2022/04/18 12:08:07;;;;;;;4.30;2.33;;;;;;;9.99;56.55;99158.81;5054174;28;20067;-95
2022/04/18 12:10:35;;;;;;;2.35;1.90;;;;;;;10.79;56.13;99269.66;5037250;28;20021;-96
2022/04/18 12:13:05;;;;;;;2.85;2.35;;;;;;;10.89;55.94;99261.44;5022948;28;20148;-95